KHKA/HKA METAR and TAF weather

Enter ICAO airport designator
Station Type Date Time Source
KHKA METAR 2019/04/26 03:53 UTC NOAA

KHKA 260353Z AUTO 29004KT 10SM CLR 15/13 A2981 RMK AO2 SLP093 T01500133 $


Station Type Date Time Source
KHKA Decoded METAR 2019/04/26 03:53 UTC NOAA

BLYTHEVILLE MUNICIPAL AIRPORT , AR, United States (KHKA) 35-56N 89-50W 78M
Apr 25, 2019 - 11:53 PM EDT / 2019.04.26 0353 UTC
Wind: from the WNW (290 degrees) at 5 MPH (4 KT):0
Visibility: 10 mile(s):0
Sky conditions: clear
Temperature: 59.0 F (15.0 C)
Dew Point: 55.9 F (13.3 C)
Relative Humidity: 89%
Pressure (altimeter): 29.81 in. Hg (1009 hPa)
ob: KHKA 260353Z AUTO 29004KT 10SM CLR 15/13 A2981 RMK AO2 SLP093 T01500133
cycle: 4

Station Type Date Time Source
KHKA TAF UTC NOAA

Error!

Example: see airport list